Time;durP1;ratioP1;P1;durP2;ratioP2;P2;SDS_P1;SDS_P2;PMS_P1;PMS_P2;Temp;Humidity;BMP_temperature;BMP_pressure;BME280_temperature;BME280_humidity;BME280_pressure;Samples;Min_cycle;Max_cycle;Signal;HPM_P1;HPM_P2
2021/11/14 00:01:12;;;;;;;73.53;28.05;;;8.10;80.00;;;;;;4949051;29;20035;-60
2021/11/14 00:03:40;;;;;;;141.82;26.48;;;8.00;80.10;;;;;;4968346;28;20035;-60
2021/11/14 00:06:07;;;;;;;53.88;23.67;;;8.00;80.50;;;;;;4937366;29;20103;-60
2021/11/14 00:08:33;;;;;;;81.72;22.48;;;7.90;80.70;;;;;;4936227;29;20144;-60
2021/11/14 00:11:09;;;;;;;57.28;23.30;;;7.80;80.80;;;;;;4940639;29;20482;-60
2021/11/14 00:13:35;;;;;;;46.55;23.83;;;7.80;81.00;;;;;;4945505;28;20034;-60
2021/11/14 00:16:01;;;;;;;49.15;21.15;;;7.70;81.30;;;;;;4942513;28;20499;-59
2021/11/14 00:18:27;;;;;;;54.15;22.38;;;7.70;81.70;;;;;;4950111;28;20027;-60
2021/11/14 00:20:53;;;;;;;40.75;20.60;;;7.60;81.50;;;;;;4959189;28;20034;-60
2021/11/14 00:23:20;;;;;;;35.92;22.45;;;7.60;81.50;;;;;;4936879;29;20027;-60
2021/11/14 00:25:46;;;;;;;31.27;22.90;;;7.50;81.60;;;;;;4936933;29;20046;-60
2021/11/14 00:28:12;;;;;;;29.73;20.73;;;7.50;81.80;;;;;;4939398;29;20111;-60
2021/11/14 00:30:39;;;;;;;30.33;20.42;;;7.50;81.80;;;;;;4935502;29;20032;-59
2021/11/14 00:33:05;;;;;;;27.58;20.00;;;7.40;81.70;;;;;;4939589;28;20064;-59
2021/11/14 00:35:32;;;;;;;29.25;19.27;;;7.30;81.70;;;;;;4936883;29;20031;-59
2021/11/14 00:37:58;;;;;;;28.25;20.45;;;7.20;81.90;;;;;;4947904;28;20535;-60
2021/11/14 00:40:27;;;;;;;29.33;18.55;;;7.10;82.10;;;;;;4936521;29;20139;-60
2021/11/14 00:42:57;;;;;;;27.58;19.05;;;7.10;82.20;;;;;;4936565;29;20031;-60
2021/11/14 00:45:25;;;;;;;25.77;18.70;;;7.10;82.20;;;;;;4948352;29;20114;-59
2021/11/14 00:47:51;;;;;;;25.50;17.50;;;7.00;82.30;;;;;;4949960;29;20368;-59
2021/11/14 00:50:16;;;;;;;24.15;17.83;;;7.00;82.30;;;;;;4950921;28;20034;-60
2021/11/14 00:52:44;;;;;;;25.55;18.15;;;6.90;82.30;;;;;;4936859;28;20031;-60
2021/11/14 00:55:15;;;;;;;26.85;18.70;;;6.90;82.50;;;;;;4946131;28;20134;-59
2021/11/14 00:57:41;;;;;;;26.15;19.92;;;6.80;82.60;;;;;;4936532;29;20027;-58
2021/11/14 01:00:11;;;;;;;26.60;19.40;;;6.80;83.00;;;;;;4936224;29;20032;-58
2021/11/14 01:02:38;;;;;;;23.23;17.65;;;6.80;83.30;;;;;;4936316;29;20030;-59
2021/11/14 01:05:07;;;;;;;25.35;19.20;;;6.70;83.40;;;;;;4937237;29;20086;-58
2021/11/14 01:07:33;;;;;;;25.90;18.30;;;6.70;83.50;;;;;;4952150;29;20086;-59
2021/11/14 01:09:59;;;;;;;23.88;17.77;;;6.70;83.70;;;;;;4955111;28;20027;-59
2021/11/14 01:12:24;;;;;;;26.88;19.83;;;6.70;83.80;;;;;;4936319;29;20038;-59
2021/11/14 01:14:50;;;;;;;24.90;17.90;;;6.70;83.90;;;;;;4936016;29;20031;-59
2021/11/14 01:17:16;;;;;;;23.55;17.70;;;6.70;84.10;;;;;;4942555;29;20027;-59
2021/11/14 01:19:42;;;;;;;26.35;20.20;;;6.70;84.40;;;;;;4959747;28;20026;-59
2021/11/14 01:22:09;;;;;;;28.92;21.00;;;6.70;84.50;;;;;;4944677;28;20106;-59
2021/11/14 01:24:36;;;;;;;28.05;20.77;;;6.80;84.50;;;;;;4939380;28;20380;-59
2021/11/14 01:27:01;;;;;;;27.42;20.48;;;6.80;84.50;;;;;;4938077;28;20094;-59
2021/11/14 01:29:27;;;;;;;29.08;21.35;;;6.80;84.60;;;;;;4936120;29;20068;-57
2021/11/14 01:31:53;;;;;;;26.98;18.35;;;6.90;84.60;;;;;;4935890;29;20023;-59
2021/11/14 01:34:19;;;;;;;24.98;18.10;;;6.90;84.50;;;;;;4935468;29;20114;-59
2021/11/14 01:36:44;;;;;;;28.48;21.38;;;7.00;84.30;;;;;;4942059;29;20160;-59
2021/11/14 01:39:10;;;;;;;28.00;20.42;;;7.00;84.10;;;;;;4935818;29;20194;-59
2021/11/14 01:41:36;;;;;;;25.70;18.50;;;7.00;84.00;;;;;;4943391;28;20028;-59
2021/11/14 01:44:03;;;;;;;25.55;18.13;;;7.00;83.90;;;;;;4940924;28;20467;-59
2021/11/14 01:46:29;;;;;;;28.38;20.13;;;7.10;83.80;;;;;;4951959;28;20028;-59
2021/11/14 01:48:56;;;;;;;29.13;18.55;;;7.10;83.50;;;;;;4959452;28;20027;-59
2021/11/14 01:51:23;;;;;;;24.55;16.83;;;7.10;83.30;;;;;;4940756;28;20035;-58
2021/11/14 01:53:49;;;;;;;26.13;17.92;;;7.20;83.20;;;;;;4936026;29;20373;-59
2021/11/14 01:56:17;;;;;;;26.17;18.58;;;7.20;83.00;;;;;;4935667;29;20024;-58
2021/11/14 01:58:45;;;;;;;25.90;17.98;;;7.20;82.80;;;;;;4945507;29;20032;-58
2021/11/14 02:01:26;;;;;;;26.73;18.25;;;7.20;82.70;;;;;;4937944;28;20066;-58
2021/11/14 02:03:56;;;;;;;27.07;19.20;;;7.10;82.60;;;;;;4935723;29;20030;-58
2021/11/14 02:06:24;;;;;;;23.88;17.23;;;7.10;82.60;;;;;;4946584;29;20091;-57
2021/11/14 02:08:50;;;;;;;26.88;19.40;;;7.20;82.50;;;;;;4935489;29;20487;-58
2021/11/14 02:11:17;;;;;;;25.30;17.33;;;7.10;82.40;;;;;;4935850;29;20280;-59
2021/11/14 02:13:45;;;;;;;27.73;18.00;;;7.10;82.40;;;;;;4952580;28;20035;-57
2021/11/14 02:16:13;;;;;;;25.50;17.50;;;7.10;82.50;;;;;;4944390;28;20024;-58
2021/11/14 02:18:39;;;;;;;23.92;17.35;;;7.10;82.30;;;;;;4941010;28;20016;-58
2021/11/14 02:21:04;;;;;;;26.67;18.48;;;7.10;82.10;;;;;;4935609;29;20036;-58
2021/11/14 02:23:30;;;;;;;26.35;18.42;;;7.10;81.90;;;;;;4943243;29;20043;-58
2021/11/14 02:25:57;;;;;;;26.42;18.58;;;7.10;81.90;;;;;;4935643;29;20027;-58
2021/11/14 02:28:23;;;;;;;25.25;17.35;;;7.10;81.90;;;;;;4935425;29;20030;-58
2021/11/14 02:30:52;;;;;;;23.95;17.15;;;7.10;81.80;;;;;;4941585;29;20027;-59
2021/11/14 02:33:19;;;;;;;24.75;16.42;;;7.10;81.60;;;;;;4939436;28;20046;-58
2021/11/14 02:35:49;;;;;;;26.45;16.70;;;7.10;81.40;;;;;;4944533;28;20023;-58
2021/11/14 02:38:16;;;;;;;24.77;17.17;;;7.10;81.30;;;;;;4938359;28;20066;-58
2021/11/14 02:40:42;;;;;;;27.40;17.92;;;7.10;81.30;;;;;;4935118;29;20572;-58
2021/11/14 02:43:10;;;;;;;24.55;17.42;;;7.10;81.10;;;;;;4940040;29;20478;-58
2021/11/14 02:45:36;;;;;;;24.83;17.75;;;7.10;81.00;;;;;;4943761;28;20035;-58
2021/11/14 02:48:03;;;;;;;26.23;19.67;;;7.10;80.80;;;;;;4944212;28;20392;-58
2021/11/14 02:50:29;;;;;;;23.73;16.13;;;7.10;80.70;;;;;;4946793;28;20027;-58
2021/11/14 02:52:56;;;;;;;23.95;16.27;;;7.10;80.50;;;;;;4951956;28;20027;-57
2021/11/14 02:55:24;;;;;;;24.13;17.33;;;7.10;80.40;;;;;;4948144;29;20058;-58
2021/11/14 02:57:51;;;;;;;24.38;16.23;;;7.10;80.20;;;;;;4945212;28;20063;-57
2021/11/14 03:00:22;;;;;;;27.33;17.25;;;7.10;80.20;;;;;;4938309;29;20365;-57
2021/11/14 03:02:49;;;;;;;25.20;16.67;;;7.10;80.10;;;;;;4938589;29;20472;-58
2021/11/14 03:05:18;;;;;;;24.58;17.98;;;7.10;80.00;;;;;;4938446;29;20038;-58
2021/11/14 03:07:45;;;;;;;24.70;17.33;;;7.10;80.00;;;;;;4938484;29;20512;-58
2021/11/14 03:10:13;;;;;;;27.15;17.52;;;7.00;79.90;;;;;;4941698;28;20036;-57
2021/11/14 03:12:38;;;;;;;24.95;17.42;;;6.90;80.00;;;;;;4939142;28;20502;-58
2021/11/14 03:15:05;;;;;;;26.80;18.73;;;6.90;80.00;;;;;;4950363;28;20036;-58
2021/11/14 03:17:31;;;;;;;25.88;17.48;;;6.90;80.20;;;;;;4954091;29;20031;-58
2021/11/14 03:19:57;;;;;;;26.83;17.35;;;6.90;80.50;;;;;;4960594;28;20500;-58
2021/11/14 03:22:23;;;;;;;28.30;18.20;;;6.80;80.60;;;;;;4951745;28;20118;-58
2021/11/14 03:24:49;;;;;;;28.08;19.77;;;6.90;80.90;;;;;;4938145;29;20090;-58
2021/11/14 03:27:15;;;;;;;25.10;18.08;;;6.90;80.90;;;;;;4949709;28;20078;-58
2021/11/14 03:29:42;;;;;;;26.02;18.55;;;6.90;80.90;;;;;;4943141;29;20464;-58
2021/11/14 03:32:12;;;;;;;26.58;18.90;;;6.90;81.00;;;;;;4943645;28;20036;-58
2021/11/14 03:34:38;;;;;;;25.38;17.30;;;6.90;81.10;;;;;;4937787;29;20476;-58
2021/11/14 03:37:15;;;;;;;26.08;17.40;;;6.90;81.00;;;;;;4942388;29;20026;-58
2021/11/14 03:39:42;;;;;;;26.92;18.55;;;7.00;81.00;;;;;;4953640;28;20511;-58
2021/11/14 03:42:08;;;;;;;24.42;17.73;;;7.00;81.10;;;;;;4943429;28;20016;-58
2021/11/14 03:44:34;;;;;;;27.00;17.10;;;7.00;81.00;;;;;;4945227;28;20031;-59
2021/11/14 03:47:00;;;;;;;28.35;18.40;;;7.00;81.00;;;;;;4941640;29;20031;-58
2021/11/14 03:49:25;;;;;;;26.27;16.15;;;7.00;81.10;;;;;;4949367;28;20023;-58
2021/11/14 03:51:51;;;;;;;27.35;18.85;;;7.00;81.10;;;;;;4938507;28;20032;-58
2021/11/14 03:54:17;;;;;;;24.15;17.02;;;7.00;81.10;;;;;;4937502;29;20580;-58
2021/11/14 03:56:43;;;;;;;25.45;17.10;;;7.00;81.00;;;;;;4937502;29;20051;-58
2021/11/14 03:59:09;;;;;;;25.80;18.17;;;7.00;81.20;;;;;;4937450;29;20035;-57
2021/11/14 04:01:34;;;;;;;25.52;17.45;;;7.00;81.20;;;;;;4950056;28;20023;-57
2021/11/14 04:04:00;;;;;;;26.77;19.52;;;7.00;81.10;;;;;;4949275;29;20026;-61
2021/11/14 04:06:27;;;;;;;27.38;20.15;;;7.00;81.20;;;;;;4936105;29;20098;-58
2021/11/14 04:08:53;;;;;;;27.52;19.00;;;7.00;81.30;;;;;;4941659;28;20028;-58
2021/11/14 04:11:20;;;;;;;25.30;17.55;;;6.90;81.40;;;;;;4945986;29;20027;-58
2021/11/14 04:13:45;;;;;;;28.67;17.70;;;6.90;81.40;;;;;;4964765;28;20053;-58
2021/11/14 04:16:11;;;;;;;26.15;17.60;;;6.90;81.40;;;;;;4954633;28;20031;-57
2021/11/14 04:18:37;;;;;;;31.05;19.42;;;6.90;81.40;;;;;;4952657;28;20024;-58
2021/11/14 04:21:05;;;;;;;25.27;19.10;;;6.90;81.50;;;;;;4941870;28;20031;-58
2021/11/14 04:23:31;;;;;;;28.23;18.02;;;6.90;82.20;;;;;;4945488;29;20030;-57
2021/11/14 04:25:57;;;;;;;25.52;17.25;;;6.80;81.40;;;;;;4947017;28;20053;-58
2021/11/14 04:28:23;;;;;;;28.05;17.38;;;6.90;81.50;;;;;;4937013;29;20024;-57
2021/11/14 04:30:50;;;;;;;28.45;19.55;;;6.90;81.40;;;;;;4936979;29;20468;-58
2021/11/14 04:33:18;;;;;;;30.42;19.73;;;6.80;81.50;;;;;;4936912;29;20087;-57
2021/11/14 04:35:44;;;;;;;32.95;20.70;;;6.90;81.40;;;;;;4937879;28;20058;-58
2021/11/14 04:38:11;;;;;;;28.40;19.33;;;6.80;81.20;;;;;;4936788;29;20031;-58
2021/11/14 04:40:37;;;;;;;31.52;21.10;;;6.80;81.30;;;;;;4937384;28;20047;-56
2021/11/14 04:43:04;;;;;;;29.80;20.35;;;6.80;81.30;;;;;;4947994;28;20087;-58
2021/11/14 04:45:31;;;;;;;27.60;19.15;;;6.80;81.30;;;;;;4944226;28;20055;-58
2021/11/14 04:47:57;;;;;;;28.13;17.90;;;6.80;81.40;;;;;;4940410;29;20078;-58
2021/11/14 04:50:23;;;;;;;25.02;18.45;;;6.80;81.40;;;;;;4936638;29;20031;-56
2021/11/14 04:52:53;;;;;;;26.90;19.23;;;6.80;81.40;;;;;;4949051;28;20031;-58
2021/11/14 04:55:21;;;;;;;33.50;19.15;;;6.80;81.40;;;;;;4936410;29;20169;-58
2021/11/14 04:57:52;;;;;;;29.38;19.38;;;6.70;81.60;;;;;;4936393;29;20416;-58
2021/11/14 05:00:24;;;;;;;30.92;20.20;;;6.70;81.60;;;;;;4936696;29;20055;-58
2021/11/14 05:02:50;;;;;;;30.77;20.63;;;6.70;81.70;;;;;;4936580;29;20054;-58
2021/11/14 05:05:17;;;;;;;28.98;18.85;;;6.70;81.80;;;;;;4936408;29;20543;-58
2021/11/14 05:07:42;;;;;;;27.60;19.85;;;6.70;81.60;;;;;;4946445;28;20424;-58
2021/11/14 05:10:08;;;;;;;32.53;22.95;;;6.80;81.80;;;;;;4940446;28;20047;-58
2021/11/14 05:12:34;;;;;;;28.35;19.10;;;6.80;81.70;;;;;;4945612;28;20111;-58
2021/11/14 05:15:00;;;;;;;33.65;20.92;;;6.80;81.80;;;;;;4952441;28;20125;-58
2021/11/14 05:17:26;;;;;;;31.65;21.77;;;6.80;81.60;;;;;;4938158;28;20020;-57
2021/11/14 05:19:53;;;;;;;28.05;18.58;;;6.90;81.60;;;;;;4936391;29;20469;-56
2021/11/14 05:22:18;;;;;;;29.05;21.25;;;6.90;81.50;;;;;;4936016;29;20024;-58
2021/11/14 05:24:44;;;;;;;33.13;21.60;;;7.00;81.50;;;;;;4942608;28;20387;-56
2021/11/14 05:27:10;;;;;;;30.33;20.30;;;7.00;81.50;;;;;;4938425;28;20547;-57
2021/11/14 05:29:36;;;;;;;29.35;19.58;;;7.00;81.40;;;;;;4948029;29;20129;-58
2021/11/14 05:32:02;;;;;;;29.83;19.48;;;7.00;81.30;;;;;;4938703;28;20039;-57
2021/11/14 05:34:28;;;;;;;31.23;20.13;;;7.10;81.30;;;;;;4936168;29;20035;-58
2021/11/14 05:36:53;;;;;;;35.85;22.95;;;7.10;81.20;;;;;;4935879;29;20028;-58
2021/11/14 05:39:19;;;;;;;28.00;18.73;;;7.20;81.10;;;;;;4935714;29;20051;-58
2021/11/14 05:41:45;;;;;;;31.77;21.10;;;7.20;80.90;;;;;;4945642;28;20032;-58
2021/11/14 05:44:10;;;;;;;33.67;20.95;;;7.20;80.90;;;;;;4945717;29;20055;-57
2021/11/14 05:46:36;;;;;;;29.95;20.23;;;7.30;80.80;;;;;;4940539;29;20047;-58
2021/11/14 05:49:08;;;;;;;29.60;20.70;;;7.30;80.50;;;;;;4941380;29;20024;-58
2021/11/14 05:51:36;;;;;;;31.15;20.52;;;7.40;80.50;;;;;;4936075;29;20069;-58
2021/11/14 05:54:03;;;;;;;30.98;20.77;;;7.40;80.10;;;;;;4947540;28;20495;-58
2021/11/14 05:56:29;;;;;;;32.05;22.02;;;7.40;80.00;;;;;;4935625;29;20465;-59
2021/11/14 05:59:11;;;;;;;27.45;19.73;;;7.50;79.80;;;;;;4937945;28;20432;-58
2021/11/14 06:04:23;;;;;;;31.13;20.38;;;7.50;79.40;;;;;;4936069;29;20035;-61
2021/11/14 06:06:49;;;;;;;29.98;21.38;;;7.40;79.00;;;;;;4935588;29;20027;-58
2021/11/14 06:09:15;;;;;;;30.23;19.90;;;7.50;79.00;;;;;;4935918;29;20051;-58
2021/11/14 06:11:40;;;;;;;34.42;21.85;;;7.50;78.90;;;;;;4960895;28;20065;-60
2021/11/14 06:14:06;;;;;;;35.67;26.30;;;7.40;78.80;;;;;;4936527;29;20036;-59
2021/11/14 06:16:32;;;;;;;36.78;25.02;;;7.40;78.70;;;;;;4942927;28;20077;-58
2021/11/14 06:18:58;;;;;;;47.20;36.42;;;7.40;78.70;;;;;;4940273;28;20488;-58
2021/11/14 06:21:24;;;;;;;45.75;31.33;;;7.50;78.60;;;;;;4935719;29;20020;-58
2021/11/14 06:23:51;;;;;;;42.15;30.08;;;7.50;78.50;;;;;;4935591;29;20494;-58
2021/11/14 06:26:17;;;;;;;41.20;29.33;;;7.50;78.60;;;;;;4937073;29;20036;-59
2021/11/14 06:28:43;;;;;;;34.97;25.33;;;7.50;78.60;;;;;;4939165;29;20032;-59
2021/11/14 06:31:09;;;;;;;38.35;27.20;;;7.50;78.50;;;;;;4939207;28;20384;-58
2021/11/14 06:33:34;;;;;;;38.00;27.30;;;7.50;78.30;;;;;;4944426;28;20038;-58
2021/11/14 06:36:00;;;;;;;38.05;25.63;;;7.50;78.30;;;;;;4955733;29;20042;-58
2021/11/14 06:38:26;;;;;;;34.70;25.63;;;7.40;78.30;;;;;;4957693;28;20035;-58
2021/11/14 06:40:52;;;;;;;36.78;27.08;;;7.40;78.20;;;;;;4950582;28;20399;-59
2021/11/14 06:43:18;;;;;;;34.47;26.63;;;7.50;78.30;;;;;;4945371;29;20036;-58
2021/11/14 06:45:43;;;;;;;36.40;25.00;;;7.50;78.20;;;;;;4938623;29;20039;-58
2021/11/14 06:48:10;;;;;;;36.83;25.70;;;7.50;78.20;;;;;;4938226;29;20040;-59
2021/11/14 06:50:36;;;;;;;34.78;23.75;;;7.50;77.80;;;;;;4946684;28;20042;-58
2021/11/14 06:53:02;;;;;;;34.40;23.85;;;7.50;77.80;;;;;;4940375;28;20068;-59
2021/11/14 06:55:29;;;;;;;35.25;23.65;;;7.50;77.90;;;;;;4938554;29;20052;-59
2021/11/14 06:57:55;;;;;;;37.35;26.38;;;7.50;77.80;;;;;;4938533;29;20031;-59
2021/11/14 07:00:23;;;;;;;35.25;22.20;;;7.50;77.80;;;;;;4938524;29;20390;-58
2021/11/14 07:02:49;;;;;;;35.25;24.15;;;7.50;77.70;;;;;;4938535;29;20023;-58
2021/11/14 07:05:15;;;;;;;35.22;23.25;;;7.50;77.70;;;;;;4943525;28;20031;-59
2021/11/14 07:07:41;;;;;;;34.90;25.38;;;7.50;77.70;;;;;;4947130;28;20075;-58
2021/11/14 07:10:10;;;;;;;37.15;24.55;;;7.50;77.70;;;;;;4946003;28;20447;-57
2021/11/14 07:12:36;;;;;;;31.55;21.60;;;7.40;77.70;;;;;;4958657;28;20388;-58
2021/11/14 07:15:04;;;;;;;31.90;22.02;;;7.40;77.80;;;;;;4951235;29;20034;-59
2021/11/14 07:17:30;;;;;;;33.05;21.75;;;7.40;78.10;;;;;;4953616;29;20023;-59
2021/11/14 07:19:58;;;;;;;28.38;21.10;;;7.30;78.30;;;;;;4957319;28;20046;-57
2021/11/14 07:22:24;;;;;;;29.48;21.88;;;7.30;78.50;;;;;;4955916;28;20035;-58
2021/11/14 07:24:50;;;;;;;27.58;20.05;;;7.30;78.60;;;;;;4939715;28;20028;-57
2021/11/14 07:27:16;;;;;;;34.42;21.45;;;7.40;78.70;;;;;;4938356;29;20047;-58
2021/11/14 07:29:42;;;;;;;28.42;20.45;;;7.40;78.80;;;;;;4938021;29;20042;-58
2021/11/14 07:32:08;;;;;;;26.30;19.90;;;7.40;78.90;;;;;;4938095;29;20515;-58
2021/11/14 07:34:34;;;;;;;31.40;20.92;;;7.40;78.90;;;;;;4937863;29;20038;-57
2021/11/14 07:36:59;;;;;;;28.70;20.27;;;7.40;79.00;;;;;;4937264;29;20035;-58
2021/11/14 07:39:26;;;;;;;29.17;20.10;;;7.30;79.00;;;;;;4950705;28;20035;-59
2021/11/14 07:41:51;;;;;;;33.53;21.58;;;7.30;79.20;;;;;;4957161;28;20422;-57
2021/11/14 07:44:18;;;;;;;28.80;21.20;;;7.40;79.30;;;;;;4957043;28;20082;-59
2021/11/14 07:46:43;;;;;;;30.77;20.77;;;7.40;79.40;;;;;;4956687;28;20055;-57
2021/11/14 07:49:09;;;;;;;32.20;21.48;;;7.40;79.70;;;;;;4956567;28;20432;-58
2021/11/14 07:51:35;;;;;;;27.55;20.20;;;7.30;79.90;;;;;;4956458;28;20110;-58
2021/11/14 07:54:03;;;;;;;30.67;21.10;;;7.30;79.90;;;;;;4956536;28;20501;-57
2021/11/14 07:56:29;;;;;;;28.05;21.10;;;7.40;79.90;;;;;;4955724;28;20024;-58
2021/11/14 07:58:55;;;;;;;33.03;22.60;;;7.40;80.20;;;;;;4951052;28;20078;-58
2021/11/14 08:01:21;;;;;;;28.35;21.55;;;7.40;80.10;;;;;;4950856;28;20114;-59
2021/11/14 08:03:46;;;;;;;33.75;21.58;;;7.50;80.30;;;;;;4957838;28;20024;-58
2021/11/14 08:06:12;;;;;;;30.27;20.25;;;7.50;80.20;;;;;;4949622;28;20022;-58
2021/11/14 08:08:40;;;;;;;30.98;21.25;;;7.60;80.10;;;;;;4955721;28;20030;-58
2021/11/14 08:11:05;;;;;;;31.17;22.52;;;7.70;80.10;;;;;;4957930;28;20119;-57
2021/11/14 08:13:31;;;;;;;28.55;21.38;;;7.70;80.10;;;;;;4958753;28;20118;-61
2021/11/14 08:15:57;;;;;;;34.10;22.65;;;7.70;80.10;;;;;;4949438;28;20038;-60
2021/11/14 08:18:22;;;;;;;33.15;22.95;;;7.80;80.00;;;;;;4942833;29;20110;-60
2021/11/14 08:20:49;;;;;;;27.05;20.17;;;7.80;79.90;;;;;;4942782;29;20535;-59
2021/11/14 08:23:16;;;;;;;28.30;21.25;;;7.90;80.10;;;;;;4952160;28;20467;-56
2021/11/14 08:25:42;;;;;;;29.45;21.60;;;7.90;80.00;;;;;;4940961;29;20067;-59
2021/11/14 08:28:09;;;;;;;30.52;22.65;;;8.00;80.00;;;;;;4936771;29;20023;-57
2021/11/14 08:30:36;;;;;;;31.00;22.77;;;8.10;80.10;;;;;;4935483;29;20060;-57
2021/11/14 08:33:02;;;;;;;31.83;21.95;;;8.10;80.10;;;;;;4947659;28;20034;-58
2021/11/14 08:35:28;;;;;;;31.50;19.40;;;8.20;79.80;;;;;;4941610;28;20023;-57
2021/11/14 08:37:57;;;;;;;30.27;20.30;;;8.20;79.60;;;;;;4935045;29;20028;-57
2021/11/14 08:40:24;;;;;;;29.20;21.15;;;8.30;79.70;;;;;;4947958;29;20043;-58
2021/11/14 08:42:50;;;;;;;29.48;21.20;;;8.30;79.60;;;;;;4934227;29;20064;-59
2021/11/14 08:45:16;;;;;;;31.23;23.45;;;8.40;79.60;;;;;;4936400;29;20515;-60
2021/11/14 08:47:42;;;;;;;30.70;21.38;;;8.40;79.20;;;;;;4952816;29;20067;-60
2021/11/14 08:50:11;;;;;;;34.72;23.13;;;8.40;79.20;;;;;;4966408;28;20056;-57
2021/11/14 08:52:37;;;;;;;29.75;22.52;;;8.40;79.30;;;;;;4937408;28;20028;-58
2021/11/14 08:55:04;;;;;;;36.70;25.27;;;8.40;79.20;;;;;;4935815;29;20083;-56
2021/11/14 08:57:29;;;;;;;36.33;23.63;;;8.40;79.10;;;;;;4936242;29;20032;-58
2021/11/14 08:59:55;;;;;;;35.05;25.05;;;8.40;79.10;;;;;;4936386;29;20024;-58
2021/11/14 09:02:22;;;;;;;38.40;27.85;;;8.50;79.20;;;;;;4937333;28;20024;-58
2021/11/14 09:04:49;;;;;;;31.73;22.95;;;8.50;79.00;;;;;;4963834;28;20391;-58
2021/11/14 09:07:15;;;;;;;30.25;22.08;;;8.60;79.10;;;;;;4939660;28;20031;-58
2021/11/14 09:09:41;;;;;;;31.45;22.30;;;8.60;78.60;;;;;;4945688;28;20042;-57
2021/11/14 09:12:07;;;;;;;34.60;21.73;;;8.60;78.40;;;;;;4943054;28;20023;-58
2021/11/14 09:14:33;;;;;;;32.38;20.65;;;8.70;78.40;;;;;;4945656;28;20036;-58
2021/11/14 09:16:59;;;;;;;31.10;21.58;;;8.70;78.70;;;;;;4939775;29;20032;-58
2021/11/14 09:19:25;;;;;;;33.97;22.60;;;8.70;78.30;;;;;;4958801;28;20027;-58
2021/11/14 09:21:52;;;;;;;29.50;20.15;;;8.70;78.20;;;;;;4957787;28;20467;-56
2021/11/14 09:24:18;;;;;;;29.73;20.27;;;8.70;78.30;;;;;;4955177;28;20158;-58
2021/11/14 09:26:45;;;;;;;29.48;20.23;;;8.70;78.20;;;;;;4952319;28;20031;-58
2021/11/14 09:29:12;;;;;;;35.10;22.60;;;8.70;78.20;;;;;;4966648;28;20031;-58
2021/11/14 09:31:38;;;;;;;32.75;20.98;;;8.70;78.50;;;;;;4954791;28;20105;-58
2021/11/14 09:34:04;;;;;;;29.00;20.55;;;8.70;78.60;;;;;;4956941;28;20055;-60
2021/11/14 09:36:31;;;;;;;28.90;20.95;;;8.70;78.60;;;;;;4940659;28;20034;-58
2021/11/14 09:39:03;;;;;;;33.75;21.02;;;8.70;78.60;;;;;;4935346;29;20114;-56
2021/11/14 09:41:29;;;;;;;29.20;19.63;;;8.80;78.70;;;;;;4953638;28;20058;-58
2021/11/14 09:43:55;;;;;;;27.80;19.25;;;8.80;78.60;;;;;;4954987;28;20031;-58
2021/11/14 09:46:21;;;;;;;30.95;21.50;;;8.80;78.80;;;;;;4954778;28;20023;-57
2021/11/14 09:48:48;;;;;;;28.83;20.85;;;8.80;78.30;;;;;;4954825;28;20549;-57
2021/11/14 09:51:15;;;;;;;30.83;21.15;;;8.80;78.30;;;;;;4954535;28;20419;-58
2021/11/14 09:53:42;;;;;;;31.80;21.63;;;8.80;78.50;;;;;;4952583;28;20035;-56
2021/11/14 09:56:08;;;;;;;26.02;18.13;;;8.80;78.50;;;;;;4949316;28;20039;-58
2021/11/14 09:58:36;;;;;;;30.45;19.63;;;8.80;78.50;;;;;;4940361;28;20024;-57
2021/11/14 10:01:04;;;;;;;30.80;20.50;;;8.80;78.40;;;;;;4936785;29;20032;-58
2021/11/14 10:03:30;;;;;;;28.23;21.55;;;8.80;78.40;;;;;;4939585;29;20055;-58
2021/11/14 10:05:55;;;;;;;29.08;19.65;;;8.80;78.40;;;;;;4939699;29;20103;-58
2021/11/14 10:08:22;;;;;;;34.17;18.67;;;8.80;78.40;;;;;;4939450;29;20121;-58
2021/11/14 10:10:54;;;;;;;32.85;20.83;;;8.80;78.00;;;;;;4939248;29;20036;-58
2021/11/14 10:13:29;;;;;;;30.02;20.08;;;8.80;78.10;;;;;;4949409;29;20027;-57
2021/11/14 10:16:06;;;;;;;28.58;20.02;;;8.80;78.50;;;;;;4958714;28;20171;-58
2021/11/14 10:18:33;;;;;;;32.15;21.23;;;8.90;78.30;;;;;;4944387;28;20379;-57
2021/11/14 10:21:02;;;;;;;31.23;21.27;;;8.80;78.30;;;;;;4937416;29;20020;-57
2021/11/14 10:23:28;;;;;;;27.08;20.48;;;8.80;78.30;;;;;;4937648;29;20031;-58
2021/11/14 10:25:56;;;;;;;31.20;21.98;;;8.80;78.40;;;;;;4951453;29;20584;-58
2021/11/14 10:28:26;;;;;;;27.60;17.85;;;8.70;78.50;;;;;;4946421;28;20059;-58
2021/11/14 10:30:52;;;;;;;28.63;20.88;;;8.70;78.90;;;;;;4938601;28;20036;-57
2021/11/14 10:33:19;;;;;;;29.80;19.80;;;8.70;79.00;;;;;;4948148;28;20038;-58
2021/11/14 10:35:48;;;;;;;35.28;23.70;;;8.80;79.00;;;;;;4940048;29;20029;-58
2021/11/14 10:38:17;;;;;;;28.63;20.67;;;8.80;78.90;;;;;;4948679;28;20028;-57
2021/11/14 10:40:51;;;;;;;30.08;20.83;;;8.90;78.90;;;;;;4938441;29;20492;-58
2021/11/14 10:43:18;;;;;;;32.55;20.05;;;8.90;78.80;;;;;;4947861;28;20032;-58
2021/11/14 10:45:45;;;;;;;30.83;21.48;;;8.90;78.80;;;;;;4939063;29;20027;-58
2021/11/14 10:48:18;;;;;;;30.20;20.45;;;8.90;78.80;;;;;;4942244;28;20034;-58
2021/11/14 10:50:47;;;;;;;31.90;20.63;;;8.90;78.90;;;;;;4948623;28;20028;-58
2021/11/14 10:53:19;;;;;;;28.70;19.77;;;8.90;78.70;;;;;;4952823;28;20457;-58
2021/11/14 10:55:45;;;;;;;;;;;8.90;78.90;;;;;;4944446;28;20086;-57
2021/11/14 10:58:12;;;;;;;27.73;19.65;;;8.80;78.80;;;;;;4953324;29;20008;-58
2021/11/14 11:00:40;;;;;;;32.25;20.98;;;8.80;78.70;;;;;;4957903;28;20042;-58
2021/11/14 11:03:07;;;;;;;27.17;19.20;;;8.70;79.10;;;;;;4957395;28;20345;-58
2021/11/14 11:05:33;;;;;;;32.85;20.60;;;8.70;79.30;;;;;;4958268;28;20027;-58
2021/11/14 11:08:01;;;;;;;29.25;20.35;;;8.60;79.60;;;;;;4948975;28;20027;-58
2021/11/14 11:10:48;;;;;;;30.77;20.85;;;8.60;79.90;;;;;;4938440;29;20111;-58
2021/11/14 11:13:30;;;;;;;30.30;19.67;;;8.50;79.90;;;;;;4951755;28;20039;-57
2021/11/14 11:15:59;;;;;;;32.13;19.73;;;8.50;80.10;;;;;;4951036;29;20038;-58
2021/11/14 11:18:25;;;;;;;28.10;20.27;;;8.50;80.30;;;;;;4945988;29;20449;-57
2021/11/14 11:20:54;;;;;;;30.08;20.92;;;8.50;80.50;;;;;;4938229;29;20064;-56
2021/11/14 11:23:22;;;;;;;33.60;21.80;;;8.50;80.50;;;;;;4948318;28;20058;-58
2021/11/14 11:25:53;;;;;;;32.13;21.45;;;8.60;80.70;;;;;;4942561;28;20388;-58
2021/11/14 11:28:23;;;;;;;;;;;8.60;80.80;;;;;;4938557;29;20035;-58
2021/11/14 11:31:09;;;;;;;30.52;21.25;;;8.60;81.40;;;;;;4938350;29;19918;-58
2021/11/14 11:33:40;;;;;;;29.23;19.83;;;8.60;80.70;;;;;;4962168;28;20042;-58
2021/11/14 11:36:08;;;;;;;31.30;20.63;;;8.60;81.00;;;;;;4957053;28;20035;-57
2021/11/14 11:38:36;;;;;;;31.10;19.25;;;8.70;80.90;;;;;;4955160;28;20031;-58
2021/11/14 11:41:04;;;;;;;28.02;19.67;;;8.70;80.90;;;;;;4941198;28;20028;-58
2021/11/14 11:43:31;;;;;;;33.47;21.40;;;8.80;81.10;;;;;;4951070;29;20043;-58
2021/11/14 11:46:05;;;;;;;29.33;19.80;;;8.80;81.00;;;;;;4950879;28;20036;-57
2021/11/14 11:48:50;;;;;;;33.83;21.40;;;8.80;80.90;;;;;;4944023;28;20027;-58
2021/11/14 11:51:29;;;;;;;33.85;23.55;;;8.80;81.00;;;;;;4949864;28;20047;-58
2021/11/14 11:54:00;;;;;;;30.50;21.42;;;8.80;81.20;;;;;;4945149;28;20046;-58
2021/11/14 11:56:40;;;;;;;32.20;21.38;;;8.80;81.60;;;;;;4953040;28;20041;-58
2021/11/14 11:59:16;;;;;;;27.83;19.10;;;8.80;81.50;;;;;;4951478;29;20027;-57
2021/11/14 12:02:07;;;;;;;31.05;20.70;;;8.80;81.70;;;;;;4945690;28;20113;-58
2021/11/14 12:04:42;;;;;;;30.10;20.08;;;8.80;81.90;;;;;;4943023;28;20034;-61
2021/11/14 12:07:11;;;;;;;32.00;23.10;;;8.80;82.10;;;;;;4946045;28;20027;-58
2021/11/14 12:09:41;;;;;;;28.80;20.77;;;8.80;82.00;;;;;;4949049;28;20069;-60
2021/11/14 12:12:25;;;;;;;34.65;22.85;;;8.80;82.10;;;;;;4952225;28;20027;-58
2021/11/14 12:15:26;;;;;;;31.67;23.67;;;8.90;82.30;;;;;;4951196;28;20067;-58
2021/11/14 12:17:55;;;;;;;32.67;22.65;;;8.80;82.10;;;;;;4948297;29;20027;-58
2021/11/14 12:20:25;;;;;;;31.63;23.25;;;8.80;82.30;;;;;;4945603;28;20050;-60
2021/11/14 12:22:53;;;;;;;39.30;28.08;;;8.70;82.40;;;;;;4943025;28;20067;-57
2021/11/14 12:25:24;;;;;;;32.35;23.23;;;8.70;82.70;;;;;;4945235;28;20047;-58
2021/11/14 12:28:18;;;;;;;33.25;24.02;;;8.70;82.70;;;;;;4947446;28;20028;-57
2021/11/14 12:31:16;;;;;;;34.72;23.70;;;8.70;82.80;;;;;;4950783;28;20403;-58
2021/11/14 12:33:48;;;;;;;34.25;22.85;;;8.70;82.90;;;;;;4942958;29;20032;-58
2021/11/14 12:36:40;;;;;;;33.28;23.08;;;8.70;82.90;;;;;;4944860;28;20031;-58
2021/11/14 12:39:30;;;;;;;32.70;23.27;;;8.70;83.00;;;;;;4946908;29;20039;-58
2021/11/14 12:42:00;;;;;;;31.13;23.52;;;8.70;83.10;;;;;;4946743;28;20050;-60
2021/11/14 12:44:34;;;;;;;34.58;24.42;;;8.60;83.00;;;;;;4951963;28;20068;-57